sensor_id;sensor_type;location;lat;lon;timestamp;P1;durP1;ratioP1;P2;durP2;ratioP2
38901;SDS011;24661;53.566;9.910;2022-12-22T00:02:30;26.33;;;15.17;;
38901;SDS011;24661;53.566;9.910;2022-12-22T00:05:15;28.10;;;15.47;;
38901;SDS011;24661;53.566;9.910;2022-12-22T00:08:01;32.00;;;15.67;;
38901;SDS011;24661;53.566;9.910;2022-12-22T00:10:46;33.93;;;16.33;;
38901;SDS011;24661;53.566;9.910;2022-12-22T00:13:30;27.83;;;15.60;;
38901;SDS011;24661;53.566;9.910;2022-12-22T00:16:15;28.00;;;15.17;;
38901;SDS011;24661;53.566;9.910;2022-12-22T00:18:59;24.60;;;15.00;;
38901;SDS011;24661;53.566;9.910;2022-12-22T00:21:45;28.87;;;14.43;;
38901;SDS011;24661;53.566;9.910;2022-12-22T00:24:29;22.90;;;13.53;;
38901;SDS011;24661;53.566;9.910;2022-12-22T00:27:31;26.90;;;13.63;;
38901;SDS011;24661;53.566;9.910;2022-12-22T00:30:15;29.63;;;14.27;;
38901;SDS011;24661;53.566;9.910;2022-12-22T00:33:00;26.50;;;14.27;;
38901;SDS011;24661;53.566;9.910;2022-12-22T00:35:46;24.80;;;13.60;;
38901;SDS011;24661;53.566;9.910;2022-12-22T00:38:31;23.17;;;13.10;;
38901;SDS011;24661;53.566;9.910;2022-12-22T00:41:15;26.77;;;15.90;;
38901;SDS011;24661;53.566;9.910;2022-12-22T00:44:00;26.30;;;15.00;;
38901;SDS011;24661;53.566;9.910;2022-12-22T00:46:44;27.73;;;14.77;;
38901;SDS011;24661;53.566;9.910;2022-12-22T00:49:29;21.93;;;13.20;;
38901;SDS011;24661;53.566;9.910;2022-12-22T00:52:16;24.17;;;13.10;;
38901;SDS011;24661;53.566;9.910;2022-12-22T00:55:04;24.20;;;13.33;;
38901;SDS011;24661;53.566;9.910;2022-12-22T00:57:56;23.33;;;13.70;;
38901;SDS011;24661;53.566;9.910;2022-12-22T01:00:41;22.63;;;13.50;;
38901;SDS011;24661;53.566;9.910;2022-12-22T01:03:25;23.33;;;13.53;;
38901;SDS011;24661;53.566;9.910;2022-12-22T01:06:09;25.03;;;15.60;;
38901;SDS011;24661;53.566;9.910;2022-12-22T01:08:53;26.10;;;13.83;;
38901;SDS011;24661;53.566;9.910;2022-12-22T01:11:38;29.60;;;14.77;;
38901;SDS011;24661;53.566;9.910;2022-12-22T01:14:22;25.30;;;13.33;;
38901;SDS011;24661;53.566;9.910;2022-12-22T01:17:08;24.07;;;13.90;;
38901;SDS011;24661;53.566;9.910;2022-12-22T01:19:53;26.00;;;14.53;;
38901;SDS011;24661;53.566;9.910;2022-12-22T01:22:37;25.47;;;15.17;;
38901;SDS011;24661;53.566;9.910;2022-12-22T01:25:22;26.87;;;14.13;;
38901;SDS011;24661;53.566;9.910;2022-12-22T01:28:13;28.07;;;16.17;;
38901;SDS011;24661;53.566;9.910;2022-12-22T01:31:19;24.47;;;15.43;;
38901;SDS011;24661;53.566;9.910;2022-12-22T01:34:14;23.30;;;14.53;;
38901;SDS011;24661;53.566;9.910;2022-12-22T01:36:59;23.57;;;14.00;;
38901;SDS011;24661;53.566;9.910;2022-12-22T01:39:43;24.80;;;14.00;;
38901;SDS011;24661;53.566;9.910;2022-12-22T01:42:27;30.33;;;15.50;;
38901;SDS011;24661;53.566;9.910;2022-12-22T01:45:27;25.70;;;14.93;;
38901;SDS011;24661;53.566;9.910;2022-12-22T01:48:34;27.20;;;15.73;;
38901;SDS011;24661;53.566;9.910;2022-12-22T01:51:19;24.27;;;14.20;;
38901;SDS011;24661;53.566;9.910;2022-12-22T01:54:08;27.40;;;15.33;;
38901;SDS011;24661;53.566;9.910;2022-12-22T01:56:53;21.07;;;13.67;;
38901;SDS011;24661;53.566;9.910;2022-12-22T01:59:38;22.27;;;14.37;;
38901;SDS011;24661;53.566;9.910;2022-12-22T02:02:22;20.93;;;13.53;;
38901;SDS011;24661;53.566;9.910;2022-12-22T02:05:08;29.63;;;16.57;;
38901;SDS011;24661;53.566;9.910;2022-12-22T02:11:07;24.47;;;15.23;;
38901;SDS011;24661;53.566;9.910;2022-12-22T02:23:00;20.43;;;12.97;;
38901;SDS011;24661;53.566;9.910;2022-12-22T02:25:54;24.20;;;14.00;;
38901;SDS011;24661;53.566;9.910;2022-12-22T02:29:00;21.37;;;14.00;;
38901;SDS011;24661;53.566;9.910;2022-12-22T02:31:47;21.33;;;13.47;;
38901;SDS011;24661;53.566;9.910;2022-12-22T02:34:32;21.80;;;13.77;;
38901;SDS011;24661;53.566;9.910;2022-12-22T02:37:24;18.87;;;13.17;;
38901;SDS011;24661;53.566;9.910;2022-12-22T02:46:33;23.57;;;13.10;;
38901;SDS011;24661;53.566;9.910;2022-12-22T02:49:34;17.13;;;10.73;;
38901;SDS011;24661;53.566;9.910;2022-12-22T02:52:32;15.50;;;10.87;;
38901;SDS011;24661;53.566;9.910;2022-12-22T02:55:19;15.53;;;10.23;;
38901;SDS011;24661;53.566;9.910;2022-12-22T02:58:04;18.17;;;11.77;;
38901;SDS011;24661;53.566;9.910;2022-12-22T03:00:48;17.07;;;11.30;;
38901;SDS011;24661;53.566;9.910;2022-12-22T03:03:33;18.97;;;11.40;;
38901;SDS011;24661;53.566;9.910;2022-12-22T03:06:17;17.30;;;11.27;;
38901;SDS011;24661;53.566;9.910;2022-12-22T03:09:01;14.67;;;10.63;;
38901;SDS011;24661;53.566;9.910;2022-12-22T03:11:45;17.87;;;12.07;;
38901;SDS011;24661;53.566;9.910;2022-12-22T03:14:30;21.13;;;12.43;;
38901;SDS011;24661;53.566;9.910;2022-12-22T03:17:14;17.47;;;10.77;;
38901;SDS011;24661;53.566;9.910;2022-12-22T03:19:58;16.27;;;11.47;;
38901;SDS011;24661;53.566;9.910;2022-12-22T03:22:43;18.13;;;11.73;;
38901;SDS011;24661;53.566;9.910;2022-12-22T03:25:27;16.27;;;12.00;;
38901;SDS011;24661;53.566;9.910;2022-12-22T03:28:11;16.73;;;11.63;;
38901;SDS011;24661;53.566;9.910;2022-12-22T03:30:37;14.23;;;9.80;;
38901;SDS011;24661;53.566;9.910;2022-12-22T03:33:03;18.90;;;12.37;;
38901;SDS011;24661;53.566;9.910;2022-12-22T03:35:29;17.13;;;10.87;;
38901;SDS011;24661;53.566;9.910;2022-12-22T03:37:54;18.73;;;11.60;;
38901;SDS011;24661;53.566;9.910;2022-12-22T03:40:20;16.90;;;10.83;;
38901;SDS011;24661;53.566;9.910;2022-12-22T03:42:46;15.33;;;11.47;;
38901;SDS011;24661;53.566;9.910;2022-12-22T03:45:30;16.50;;;11.00;;
38901;SDS011;24661;53.566;9.910;2022-12-22T03:48:14;24.93;;;13.33;;
38901;SDS011;24661;53.566;9.910;2022-12-22T03:50:40;16.97;;;11.03;;
38901;SDS011;24661;53.566;9.910;2022-12-22T03:53:07;15.53;;;10.53;;
38901;SDS011;24661;53.566;9.910;2022-12-22T03:55:32;20.83;;;11.90;;
38901;SDS011;24661;53.566;9.910;2022-12-22T03:57:58;17.77;;;11.60;;
38901;SDS011;24661;53.566;9.910;2022-12-22T04:00:24;18.23;;;10.97;;
38901;SDS011;24661;53.566;9.910;2022-12-22T04:02:49;16.93;;;11.60;;
38901;SDS011;24661;53.566;9.910;2022-12-22T04:05:15;16.53;;;11.43;;
38901;SDS011;24661;53.566;9.910;2022-12-22T04:07:41;15.90;;;12.23;;
38901;SDS011;24661;53.566;9.910;2022-12-22T04:10:06;17.70;;;11.33;;
38901;SDS011;24661;53.566;9.910;2022-12-22T04:12:52;18.50;;;12.30;;
38901;SDS011;24661;53.566;9.910;2022-12-22T04:15:21;17.30;;;11.87;;
38901;SDS011;24661;53.566;9.910;2022-12-22T04:17:52;19.57;;;13.23;;
38901;SDS011;24661;53.566;9.910;2022-12-22T04:20:19;20.63;;;12.10;;
38901;SDS011;24661;53.566;9.910;2022-12-22T04:22:46;18.60;;;11.83;;
38901;SDS011;24661;53.566;9.910;2022-12-22T04:25:12;18.37;;;11.20;;
38901;SDS011;24661;53.566;9.910;2022-12-22T04:27:38;16.67;;;11.40;;
38901;SDS011;24661;53.566;9.910;2022-12-22T04:30:04;14.23;;;10.30;;
38901;SDS011;24661;53.566;9.910;2022-12-22T04:32:31;17.17;;;11.10;;
38901;SDS011;24661;53.566;9.910;2022-12-22T04:34:57;15.53;;;11.40;;
38901;SDS011;24661;53.566;9.910;2022-12-22T04:37:22;13.43;;;10.63;;
38901;SDS011;24661;53.566;9.910;2022-12-22T04:39:48;18.07;;;11.20;;
38901;SDS011;24661;53.566;9.910;2022-12-22T04:42:14;14.80;;;10.50;;
38901;SDS011;24661;53.566;9.910;2022-12-22T04:44:39;22.83;;;10.63;;
38901;SDS011;24661;53.566;9.910;2022-12-22T04:47:05;16.10;;;9.67;;
38901;SDS011;24661;53.566;9.910;2022-12-22T04:49:30;15.60;;;9.90;;
38901;SDS011;24661;53.566;9.910;2022-12-22T04:51:56;14.10;;;10.17;;
38901;SDS011;24661;53.566;9.910;2022-12-22T04:54:22;13.43;;;9.70;;
38901;SDS011;24661;53.566;9.910;2022-12-22T04:56:47;13.97;;;9.00;;
38901;SDS011;24661;53.566;9.910;2022-12-22T04:59:14;16.80;;;10.33;;
38901;SDS011;24661;53.566;9.910;2022-12-22T05:01:40;11.80;;;8.90;;
38901;SDS011;24661;53.566;9.910;2022-12-22T05:04:05;13.07;;;9.40;;
38901;SDS011;24661;53.566;9.910;2022-12-22T05:06:31;11.90;;;9.17;;
38901;SDS011;24661;53.566;9.910;2022-12-22T05:08:57;12.73;;;9.13;;
38901;SDS011;24661;53.566;9.910;2022-12-22T05:11:23;14.07;;;9.23;;
38901;SDS011;24661;53.566;9.910;2022-12-22T05:13:48;13.17;;;9.90;;
38901;SDS011;24661;53.566;9.910;2022-12-22T05:16:14;13.40;;;9.77;;
38901;SDS011;24661;53.566;9.910;2022-12-22T05:18:42;12.20;;;9.57;;
38901;SDS011;24661;53.566;9.910;2022-12-22T05:21:09;18.10;;;11.10;;
38901;SDS011;24661;53.566;9.910;2022-12-22T05:23:40;13.83;;;10.93;;
38901;SDS011;24661;53.566;9.910;2022-12-22T05:26:06;18.47;;;11.93;;
38901;SDS011;24661;53.566;9.910;2022-12-22T05:28:32;16.27;;;10.70;;
38901;SDS011;24661;53.566;9.910;2022-12-22T05:31:04;16.20;;;11.00;;
38901;SDS011;24661;53.566;9.910;2022-12-22T05:33:31;16.57;;;11.20;;
38901;SDS011;24661;53.566;9.910;2022-12-22T05:35:57;17.50;;;11.67;;
38901;SDS011;24661;53.566;9.910;2022-12-22T05:38:23;14.70;;;10.40;;
38901;SDS011;24661;53.566;9.910;2022-12-22T05:40:49;19.70;;;12.80;;
38901;SDS011;24661;53.566;9.910;2022-12-22T05:43:14;16.27;;;11.33;;
38901;SDS011;24661;53.566;9.910;2022-12-22T05:45:41;16.87;;;11.33;;
38901;SDS011;24661;53.566;9.910;2022-12-22T05:48:09;17.07;;;12.43;;
38901;SDS011;24661;53.566;9.910;2022-12-22T05:50:35;20.23;;;13.17;;
38901;SDS011;24661;53.566;9.910;2022-12-22T05:53:01;20.00;;;12.53;;
38901;SDS011;24661;53.566;9.910;2022-12-22T05:55:27;22.23;;;13.77;;
38901;SDS011;24661;53.566;9.910;2022-12-22T05:57:52;21.03;;;14.07;;
38901;SDS011;24661;53.566;9.910;2022-12-22T06:00:18;21.67;;;13.93;;
38901;SDS011;24661;53.566;9.910;2022-12-22T06:02:44;26.10;;;14.33;;
38901;SDS011;24661;53.566;9.910;2022-12-22T06:05:11;23.03;;;12.90;;
38901;SDS011;24661;53.566;9.910;2022-12-22T06:07:38;23.57;;;14.90;;
38901;SDS011;24661;53.566;9.910;2022-12-22T06:10:04;25.30;;;14.33;;
38901;SDS011;24661;53.566;9.910;2022-12-22T06:12:33;25.90;;;15.33;;
38901;SDS011;24661;53.566;9.910;2022-12-22T06:14:58;24.40;;;14.83;;
38901;SDS011;24661;53.566;9.910;2022-12-22T06:17:24;22.37;;;13.37;;
38901;SDS011;24661;53.566;9.910;2022-12-22T06:19:50;21.83;;;14.10;;
38901;SDS011;24661;53.566;9.910;2022-12-22T06:22:16;19.33;;;13.33;;
38901;SDS011;24661;53.566;9.910;2022-12-22T06:24:41;24.97;;;14.33;;
38901;SDS011;24661;53.566;9.910;2022-12-22T06:27:07;21.90;;;13.50;;
38901;SDS011;24661;53.566;9.910;2022-12-22T06:29:34;23.50;;;14.73;;
38901;SDS011;24661;53.566;9.910;2022-12-22T06:32:01;23.87;;;15.03;;
38901;SDS011;24661;53.566;9.910;2022-12-22T06:34:26;25.27;;;15.23;;
38901;SDS011;24661;53.566;9.910;2022-12-22T06:36:52;28.57;;;15.97;;
38901;SDS011;24661;53.566;9.910;2022-12-22T06:39:17;23.43;;;15.10;;
38901;SDS011;24661;53.566;9.910;2022-12-22T06:41:43;24.00;;;14.67;;
38901;SDS011;24661;53.566;9.910;2022-12-22T06:44:28;22.03;;;15.10;;
38901;SDS011;24661;53.566;9.910;2022-12-22T06:46:54;20.23;;;14.17;;
38901;SDS011;24661;53.566;9.910;2022-12-22T06:49:21;22.43;;;13.50;;
38901;SDS011;24661;53.566;9.910;2022-12-22T06:51:47;28.97;;;16.20;;
38901;SDS011;24661;53.566;9.910;2022-12-22T06:54:13;22.77;;;15.60;;
38901;SDS011;24661;53.566;9.910;2022-12-22T06:56:40;23.90;;;14.63;;
38901;SDS011;24661;53.566;9.910;2022-12-22T06:59:05;23.10;;;14.30;;
38901;SDS011;24661;53.566;9.910;2022-12-22T07:01:31;21.27;;;14.37;;
38901;SDS011;24661;53.566;9.910;2022-12-22T07:03:57;26.07;;;16.40;;
38901;SDS011;24661;53.566;9.910;2022-12-22T07:06:23;19.33;;;14.40;;
38901;SDS011;24661;53.566;9.910;2022-12-22T07:08:48;21.20;;;13.57;;
38901;SDS011;24661;53.566;9.910;2022-12-22T07:11:14;23.40;;;14.07;;
38901;SDS011;24661;53.566;9.910;2022-12-22T07:13:41;20.03;;;14.40;;
38901;SDS011;24661;53.566;9.910;2022-12-22T07:16:07;27.27;;;16.70;;
38901;SDS011;24661;53.566;9.910;2022-12-22T07:18:35;24.83;;;16.20;;
38901;SDS011;24661;53.566;9.910;2022-12-22T07:21:03;19.60;;;14.13;;
38901;SDS011;24661;53.566;9.910;2022-12-22T07:23:31;23.47;;;16.07;;
38901;SDS011;24661;53.566;9.910;2022-12-22T07:25:57;20.77;;;15.57;;
38901;SDS011;24661;53.566;9.910;2022-12-22T07:28:23;30.63;;;16.10;;
38901;SDS011;24661;53.566;9.910;2022-12-22T07:30:49;26.23;;;15.93;;
38901;SDS011;24661;53.566;9.910;2022-12-22T07:33:15;22.67;;;16.10;;
38901;SDS011;24661;53.566;9.910;2022-12-22T07:35:41;22.83;;;16.37;;
38901;SDS011;24661;53.566;9.910;2022-12-22T07:38:07;26.23;;;15.83;;
38901;SDS011;24661;53.566;9.910;2022-12-22T07:40:33;22.77;;;14.60;;
38901;SDS011;24661;53.566;9.910;2022-12-22T07:42:59;25.60;;;16.37;;
38901;SDS011;24661;53.566;9.910;2022-12-22T07:45:25;21.23;;;14.63;;
38901;SDS011;24661;53.566;9.910;2022-12-22T07:47:57;23.70;;;15.67;;
38901;SDS011;24661;53.566;9.910;2022-12-22T07:50:23;22.80;;;15.23;;
38901;SDS011;24661;53.566;9.910;2022-12-22T07:52:49;24.07;;;15.43;;
38901;SDS011;24661;53.566;9.910;2022-12-22T07:55:26;25.63;;;16.40;;
38901;SDS011;24661;53.566;9.910;2022-12-22T07:57:54;27.77;;;16.47;;
38901;SDS011;24661;53.566;9.910;2022-12-22T08:00:21;29.80;;;17.30;;
38901;SDS011;24661;53.566;9.910;2022-12-22T08:02:48;25.33;;;16.83;;
38901;SDS011;24661;53.566;9.910;2022-12-22T08:05:17;22.43;;;15.03;;
38901;SDS011;24661;53.566;9.910;2022-12-22T08:07:43;24.73;;;16.70;;
38901;SDS011;24661;53.566;9.910;2022-12-22T08:10:09;25.53;;;15.17;;
38901;SDS011;24661;53.566;9.910;2022-12-22T08:12:36;21.30;;;14.73;;
38901;SDS011;24661;53.566;9.910;2022-12-22T08:15:02;24.33;;;15.03;;
38901;SDS011;24661;53.566;9.910;2022-12-22T08:17:28;25.80;;;16.10;;
38901;SDS011;24661;53.566;9.910;2022-12-22T08:19:54;25.37;;;16.23;;
38901;SDS011;24661;53.566;9.910;2022-12-22T08:22:20;25.77;;;16.40;;
38901;SDS011;24661;53.566;9.910;2022-12-22T08:24:48;26.40;;;15.63;;
38901;SDS011;24661;53.566;9.910;2022-12-22T08:27:15;25.93;;;15.57;;
38901;SDS011;24661;53.566;9.910;2022-12-22T08:29:44;27.20;;;16.17;;
38901;SDS011;24661;53.566;9.910;2022-12-22T08:32:14;20.63;;;14.37;;
38901;SDS011;24661;53.566;9.910;2022-12-22T08:34:40;21.03;;;13.70;;
38901;SDS011;24661;53.566;9.910;2022-12-22T08:37:08;26.50;;;15.03;;
38901;SDS011;24661;53.566;9.910;2022-12-22T08:39:37;31.30;;;15.23;;
38901;SDS011;24661;53.566;9.910;2022-12-22T08:42:04;20.90;;;13.53;;
38901;SDS011;24661;53.566;9.910;2022-12-22T08:44:32;24.10;;;14.43;;
38901;SDS011;24661;53.566;9.910;2022-12-22T08:46:58;18.70;;;12.20;;
38901;SDS011;24661;53.566;9.910;2022-12-22T08:49:24;20.10;;;13.17;;
38901;SDS011;24661;53.566;9.910;2022-12-22T08:51:50;25.27;;;14.70;;
38901;SDS011;24661;53.566;9.910;2022-12-22T08:54:16;19.47;;;13.20;;
38901;SDS011;24661;53.566;9.910;2022-12-22T08:56:43;23.33;;;15.30;;
38901;SDS011;24661;53.566;9.910;2022-12-22T08:59:10;22.20;;;13.93;;
38901;SDS011;24661;53.566;9.910;2022-12-22T09:01:37;22.30;;;13.53;;
38901;SDS011;24661;53.566;9.910;2022-12-22T09:04:04;22.53;;;12.77;;
38901;SDS011;24661;53.566;9.910;2022-12-22T09:06:33;17.43;;;11.57;;
38901;SDS011;24661;53.566;9.910;2022-12-22T09:09:00;16.87;;;11.57;;
38901;SDS011;24661;53.566;9.910;2022-12-22T09:11:28;18.77;;;11.23;;
38901;SDS011;24661;53.566;9.910;2022-12-22T09:13:55;23.73;;;13.47;;
38901;SDS011;24661;53.566;9.910;2022-12-22T09:16:23;22.87;;;14.20;;
38901;SDS011;24661;53.566;9.910;2022-12-22T09:18:50;22.30;;;12.83;;
38901;SDS011;24661;53.566;9.910;2022-12-22T09:21:16;23.93;;;13.97;;
38901;SDS011;24661;53.566;9.910;2022-12-22T09:23:42;20.93;;;12.50;;
38901;SDS011;24661;53.566;9.910;2022-12-22T09:26:12;22.83;;;13.87;;
38901;SDS011;24661;53.566;9.910;2022-12-22T09:28:40;20.77;;;13.50;;
38901;SDS011;24661;53.566;9.910;2022-12-22T09:31:06;25.87;;;14.53;;
38901;SDS011;24661;53.566;9.910;2022-12-22T09:33:31;28.13;;;16.67;;
38901;SDS011;24661;53.566;9.910;2022-12-22T09:35:58;25.60;;;14.60;;
38901;SDS011;24661;53.566;9.910;2022-12-22T09:38:27;23.17;;;14.83;;
38901;SDS011;24661;53.566;9.910;2022-12-22T09:40:55;33.23;;;16.13;;
38901;SDS011;24661;53.566;9.910;2022-12-22T09:43:25;24.53;;;15.17;;
38901;SDS011;24661;53.566;9.910;2022-12-22T09:45:53;32.47;;;16.87;;
38901;SDS011;24661;53.566;9.910;2022-12-22T09:48:22;29.43;;;17.87;;
38901;SDS011;24661;53.566;9.910;2022-12-22T09:50:54;30.77;;;16.93;;
38901;SDS011;24661;53.566;9.910;2022-12-22T09:53:20;28.90;;;16.93;;
38901;SDS011;24661;53.566;9.910;2022-12-22T09:55:48;27.63;;;17.87;;
38901;SDS011;24661;53.566;9.910;2022-12-22T09:58:16;32.13;;;18.97;;
38901;SDS011;24661;53.566;9.910;2022-12-22T10:01:42;33.70;;;18.07;;
38901;SDS011;24661;53.566;9.910;2022-12-22T10:06:50;33.50;;;20.10;;
38901;SDS011;24661;53.566;9.910;2022-12-22T10:09:37;32.63;;;18.30;;
38901;SDS011;24661;53.566;9.910;2022-12-22T10:12:04;34.50;;;19.97;;
38901;SDS011;24661;53.566;9.910;2022-12-22T10:14:32;36.77;;;20.13;;
38901;SDS011;24661;53.566;9.910;2022-12-22T10:25:41;30.90;;;17.00;;
38901;SDS011;24661;53.566;9.910;2022-12-22T10:28:22;37.03;;;19.90;;
38901;SDS011;24661;53.566;9.910;2022-12-22T10:31:10;30.03;;;17.13;;
38901;SDS011;24661;53.566;9.910;2022-12-22T10:33:45;28.57;;;15.97;;
38901;SDS011;24661;53.566;9.910;2022-12-22T10:36:13;29.03;;;17.10;;
38901;SDS011;24661;53.566;9.910;2022-12-22T10:38:59;25.30;;;15.17;;
38901;SDS011;24661;53.566;9.910;2022-12-22T10:41:31;26.80;;;15.10;;
38901;SDS011;24661;53.566;9.910;2022-12-22T10:46:48;25.63;;;15.50;;
38901;SDS011;24661;53.566;9.910;2022-12-22T10:49:22;26.33;;;15.20;;
38901;SDS011;24661;53.566;9.910;2022-12-22T10:52:35;24.20;;;14.93;;
38901;SDS011;24661;53.566;9.910;2022-12-22T10:54:40;40.37;;;20.47;;
38901;SDS011;24661;53.566;9.910;2022-12-22T10:59:51;25.20;;;14.57;;
38901;SDS011;24661;53.566;9.910;2022-12-22T11:04:53;23.57;;;14.80;;
38901;SDS011;24661;53.566;9.910;2022-12-22T11:07:24;24.23;;;14.17;;
38901;SDS011;24661;53.566;9.910;2022-12-22T11:09:52;26.57;;;14.60;;
38901;SDS011;24661;53.566;9.910;2022-12-22T11:18:20;22.93;;;13.87;;
38901;SDS011;24661;53.566;9.910;2022-12-22T11:26:52;23.53;;;14.50;;
38901;SDS011;24661;53.566;9.910;2022-12-22T11:37:48;24.87;;;15.70;;
38901;SDS011;24661;53.566;9.910;2022-12-22T11:40:29;21.27;;;12.97;;
38901;SDS011;24661;53.566;9.910;2022-12-22T11:43:17;25.77;;;13.80;;
38901;SDS011;24661;53.566;9.910;2022-12-22T11:52:02;23.63;;;15.20;;
38901;SDS011;24661;53.566;9.910;2022-12-22T12:00:13;24.20;;;13.37;;
38901;SDS011;24661;53.566;9.910;2022-12-22T12:05:48;19.30;;;11.67;;
38901;SDS011;24661;53.566;9.910;2022-12-22T12:08:33;21.43;;;13.77;;
38901;SDS011;24661;53.566;9.910;2022-12-22T12:11:24;23.60;;;13.33;;
38901;SDS011;24661;53.566;9.910;2022-12-22T12:16:57;20.10;;;12.33;;
38901;SDS011;24661;53.566;9.910;2022-12-22T12:21:58;19.60;;;11.83;;
38901;SDS011;24661;53.566;9.910;2022-12-22T12:24:36;24.43;;;14.77;;
38901;SDS011;24661;53.566;9.910;2022-12-22T12:27:30;19.37;;;11.63;;
38901;SDS011;24661;53.566;9.910;2022-12-22T12:35:36;23.53;;;12.67;;
38901;SDS011;24661;53.566;9.910;2022-12-22T12:38:25;21.03;;;11.70;;
38901;SDS011;24661;53.566;9.910;2022-12-22T12:41:32;18.33;;;11.23;;
38901;SDS011;24661;53.566;9.910;2022-12-22T12:44:20;21.57;;;12.23;;
38901;SDS011;24661;53.566;9.910;2022-12-22T13:13:03;14.63;;;9.67;;
38901;SDS011;24661;53.566;9.910;2022-12-22T13:18:08;16.33;;;10.43;;
38901;SDS011;24661;53.566;9.910;2022-12-22T13:20:37;21.20;;;11.10;;
38901;SDS011;24661;53.566;9.910;2022-12-22T13:23:08;17.77;;;9.53;;
38901;SDS011;24661;53.566;9.910;2022-12-22T13:25:52;16.30;;;9.80;;
38901;SDS011;24661;53.566;9.910;2022-12-22T13:28:23;15.23;;;9.60;;
38901;SDS011;24661;53.566;9.910;2022-12-22T13:30:52;16.93;;;9.27;;
38901;SDS011;24661;53.566;9.910;2022-12-22T13:33:24;13.93;;;9.37;;
38901;SDS011;24661;53.566;9.910;2022-12-22T13:35:53;13.80;;;9.70;;
38901;SDS011;24661;53.566;9.910;2022-12-22T13:38:25;16.63;;;9.63;;
38901;SDS011;24661;53.566;9.910;2022-12-22T13:41:02;16.27;;;10.17;;
38901;SDS011;24661;53.566;9.910;2022-12-22T13:43:37;16.13;;;9.70;;
38901;SDS011;24661;53.566;9.910;2022-12-22T13:46:03;17.57;;;9.80;;
38901;SDS011;24661;53.566;9.910;2022-12-22T13:51:13;15.90;;;9.00;;
38901;SDS011;24661;53.566;9.910;2022-12-22T13:53:45;16.90;;;9.00;;
38901;SDS011;24661;53.566;9.910;2022-12-22T13:56:15;14.60;;;8.53;;
38901;SDS011;24661;53.566;9.910;2022-12-22T13:58:56;17.83;;;8.83;;
38901;SDS011;24661;53.566;9.910;2022-12-22T14:01:23;16.00;;;7.63;;
38901;SDS011;24661;53.566;9.910;2022-12-22T14:03:51;13.40;;;7.90;;
38901;SDS011;24661;53.566;9.910;2022-12-22T14:06:27;13.10;;;7.90;;
38901;SDS011;24661;53.566;9.910;2022-12-22T14:11:50;15.47;;;8.53;;
38901;SDS011;24661;53.566;9.910;2022-12-22T14:14:35;18.63;;;8.30;;
38901;SDS011;24661;53.566;9.910;2022-12-22T14:20:10;19.30;;;7.47;;
38901;SDS011;24661;53.566;9.910;2022-12-22T14:22:48;17.37;;;7.73;;
38901;SDS011;24661;53.566;9.910;2022-12-22T14:25:23;15.73;;;8.97;;
38901;SDS011;24661;53.566;9.910;2022-12-22T14:27:53;16.53;;;7.33;;
38901;SDS011;24661;53.566;9.910;2022-12-22T14:30:23;20.43;;;8.07;;
38901;SDS011;24661;53.566;9.910;2022-12-22T14:32:54;15.60;;;7.90;;
38901;SDS011;24661;53.566;9.910;2022-12-22T14:37:46;17.07;;;7.60;;
38901;SDS011;24661;53.566;9.910;2022-12-22T14:40:27;14.80;;;8.03;;
38901;SDS011;24661;53.566;9.910;2022-12-22T14:42:54;15.90;;;7.90;;
38901;SDS011;24661;53.566;9.910;2022-12-22T14:45:22;15.73;;;7.30;;
38901;SDS011;24661;53.566;9.910;2022-12-22T14:47:48;21.10;;;7.90;;
38901;SDS011;24661;53.566;9.910;2022-12-22T14:50:18;18.60;;;8.00;;
38901;SDS011;24661;53.566;9.910;2022-12-22T14:55:25;18.20;;;9.17;;
38901;SDS011;24661;53.566;9.910;2022-12-22T14:57:58;15.77;;;8.07;;
38901;SDS011;24661;53.566;9.910;2022-12-22T15:00:29;20.33;;;8.50;;
38901;SDS011;24661;53.566;9.910;2022-12-22T15:02:58;15.50;;;8.30;;
38901;SDS011;24661;53.566;9.910;2022-12-22T15:05:31;15.33;;;7.70;;
38901;SDS011;24661;53.566;9.910;2022-12-22T15:08:01;15.10;;;7.93;;
38901;SDS011;24661;53.566;9.910;2022-12-22T15:10:33;22.63;;;9.63;;
38901;SDS011;24661;53.566;9.910;2022-12-22T15:13:04;14.80;;;8.53;;
38901;SDS011;24661;53.566;9.910;2022-12-22T15:15:35;15.17;;;8.17;;
38901;SDS011;24661;53.566;9.910;2022-12-22T15:18:00;19.20;;;8.47;;
38901;SDS011;24661;53.566;9.910;2022-12-22T15:20:27;15.97;;;8.80;;
38901;SDS011;24661;53.566;9.910;2022-12-22T15:22:53;15.67;;;8.97;;
38901;SDS011;24661;53.566;9.910;2022-12-22T15:25:20;15.17;;;7.70;;
38901;SDS011;24661;53.566;9.910;2022-12-22T15:27:47;18.07;;;7.20;;
38901;SDS011;24661;53.566;9.910;2022-12-22T15:30:14;16.07;;;7.87;;
38901;SDS011;24661;53.566;9.910;2022-12-22T15:32:41;22.00;;;9.50;;
38901;SDS011;24661;53.566;9.910;2022-12-22T15:35:20;21.40;;;8.33;;
38901;SDS011;24661;53.566;9.910;2022-12-22T15:37:51;16.87;;;7.50;;
38901;SDS011;24661;53.566;9.910;2022-12-22T15:40:18;15.17;;;8.10;;
38901;SDS011;24661;53.566;9.910;2022-12-22T15:42:45;22.50;;;7.87;;
38901;SDS011;24661;53.566;9.910;2022-12-22T15:45:11;20.40;;;7.83;;
38901;SDS011;24661;53.566;9.910;2022-12-22T15:47:40;19.20;;;8.43;;
38901;SDS011;24661;53.566;9.910;2022-12-22T15:50:14;18.47;;;9.57;;
38901;SDS011;24661;53.566;9.910;2022-12-22T15:52:50;20.33;;;10.50;;
38901;SDS011;24661;53.566;9.910;2022-12-22T15:55:20;16.60;;;8.73;;
38901;SDS011;24661;53.566;9.910;2022-12-22T15:57:48;21.07;;;8.27;;
38901;SDS011;24661;53.566;9.910;2022-12-22T16:00:16;17.60;;;7.87;;
38901;SDS011;24661;53.566;9.910;2022-12-22T16:02:42;21.13;;;8.20;;
38901;SDS011;24661;53.566;9.910;2022-12-22T16:05:09;20.07;;;7.77;;
38901;SDS011;24661;53.566;9.910;2022-12-22T16:07:37;14.43;;;7.10;;
38901;SDS011;24661;53.566;9.910;2022-12-22T16:10:04;17.83;;;7.80;;
38901;SDS011;24661;53.566;9.910;2022-12-22T16:12:46;14.67;;;7.57;;
38901;SDS011;24661;53.566;9.910;2022-12-22T16:15:18;18.10;;;9.00;;
38901;SDS011;24661;53.566;9.910;2022-12-22T16:17:45;18.90;;;8.50;;
38901;SDS011;24661;53.566;9.910;2022-12-22T16:20:10;20.33;;;8.87;;
38901;SDS011;24661;53.566;9.910;2022-12-22T16:22:36;18.07;;;8.83;;
38901;SDS011;24661;53.566;9.910;2022-12-22T16:25:04;22.80;;;10.50;;
38901;SDS011;24661;53.566;9.910;2022-12-22T16:27:33;19.37;;;10.73;;
38901;SDS011;24661;53.566;9.910;2022-12-22T16:29:59;20.67;;;9.50;;
38901;SDS011;24661;53.566;9.910;2022-12-22T16:32:26;17.63;;;9.37;;
38901;SDS011;24661;53.566;9.910;2022-12-22T16:35:11;21.30;;;9.00;;
38901;SDS011;24661;53.566;9.910;2022-12-22T16:37:40;19.87;;;9.57;;
38901;SDS011;24661;53.566;9.910;2022-12-22T16:40:06;26.33;;;10.87;;
38901;SDS011;24661;53.566;9.910;2022-12-22T16:42:34;23.17;;;10.27;;
38901;SDS011;24661;53.566;9.910;2022-12-22T16:45:01;25.33;;;11.27;;
38901;SDS011;24661;53.566;9.910;2022-12-22T16:47:33;23.83;;;10.93;;
38901;SDS011;24661;53.566;9.910;2022-12-22T16:50:00;23.60;;;10.13;;
38901;SDS011;24661;53.566;9.910;2022-12-22T16:52:44;18.50;;;8.90;;
38901;SDS011;24661;53.566;9.910;2022-12-22T16:55:17;26.30;;;10.13;;
38901;SDS011;24661;53.566;9.910;2022-12-22T16:57:45;27.70;;;9.43;;
38901;SDS011;24661;53.566;9.910;2022-12-22T17:00:15;22.50;;;9.67;;
38901;SDS011;24661;53.566;9.910;2022-12-22T17:02:44;18.67;;;8.47;;
38901;SDS011;24661;53.566;9.910;2022-12-22T17:05:34;23.53;;;8.33;;
38901;SDS011;24661;53.566;9.910;2022-12-22T17:08:00;19.23;;;8.90;;